Time;durP1;ratioP1;P1;durP2;ratioP2;P2;SDS_P1;SDS_P2;PMS_P1;PMS_P2;Temp;Humidity;BMP_temperature;BMP_pressure;BME280_temperature;BME280_humidity;BME280_pressure;Samples;Min_cycle;Max_cycle;Signal;HPM_P1;HPM_P2
2022/07/12 00:03:13;;;;;;;1.83;0.70;;;;;;;19.50;61.66;100902.25;10338670;28;20050;-68
2022/07/12 00:08:14;;;;;;;1.30;1.20;;;;;;;19.02;62.67;100899.25;10343164;28;20053;-68
2022/07/12 00:13:16;;;;;;;2.45;1.05;;;;;;;18.67;63.80;100893.00;10343210;28;20080;-67
2022/07/12 00:18:18;;;;;;;1.38;1.00;;;;;;;18.78;64.85;100897.25;10351147;28;20125;-68
2022/07/12 00:23:20;;;;;;;1.25;0.95;;;;;;;19.04;64.24;100894.56;10391847;28;20415;-67
2022/07/12 00:28:22;;;;;;;1.90;1.25;;;;;;;18.77;64.72;100903.69;10399648;28;20100;-68
2022/07/12 00:33:24;;;;;;;1.58;0.73;;;;;;;18.86;64.51;100903.56;10347530;28;20551;-67
2022/07/12 00:38:25;;;;;;;2.38;1.08;;;;;;;19.04;64.31;100902.66;10344629;28;20128;-68
2022/07/12 00:43:27;;;;;;;1.05;0.85;;;;;;;19.13;64.33;100888.16;10341241;28;20124;-67
2022/07/12 00:48:32;;;;;;;1.17;0.70;;;;;;;18.97;64.73;100897.03;10350967;28;20200;-68
2022/07/12 00:53:33;;;;;;;1.40;1.00;;;;;;;18.84;65.06;100880.44;10340381;28;20069;-68
2022/07/12 00:58:35;;;;;;;2.55;1.15;;;;;;;18.93;63.74;100876.81;10352192;28;20136;-68
2022/07/12 01:03:37;;;;;;;1.20;1.10;;;;;;;18.79;64.39;100886.31;10343268;28;20192;-68
2022/07/12 01:08:39;;;;;;;1.70;1.00;;;;;;;18.73;66.15;100882.44;10354506;28;20085;-68
2022/07/12 01:13:40;;;;;;;1.50;1.00;;;;;;;18.78;65.94;100886.47;10348867;28;20141;-69
2022/07/12 01:18:44;;;;;;;1.17;1.02;;;;;;;18.79;65.67;100867.44;10356008;28;20795;-68
2022/07/12 01:23:47;;;;;;;1.30;1.08;;;;;;;18.89;65.06;100870.06;10350790;28;20064;-68
2022/07/12 01:28:50;;;;;;;1.05;0.95;;;;;;;18.92;65.68;100885.06;10348619;28;20136;-68
2022/07/12 01:33:52;;;;;;;0.90;0.80;;;;;;;18.92;65.42;100875.13;10354932;28;20081;-69
2022/07/12 01:38:53;;;;;;;1.25;1.00;;;;;;;18.96;65.49;100881.88;10348087;28;20088;-68
2022/07/12 01:43:55;;;;;;;1.27;0.95;;;;;;;18.92;65.48;100874.28;10343451;28;20045;-69
2022/07/12 01:48:56;;;;;;;1.05;0.90;;;;;;;18.95;65.65;100879.34;10344436;28;20556;-68
2022/07/12 01:53:57;;;;;;;1.38;0.75;;;;;;;18.93;65.57;100879.50;10347001;28;20145;-68
2022/07/12 01:58:59;;;;;;;1.88;1.15;;;;;;;18.89;65.73;100881.66;10360158;28;20226;-68
2022/07/12 02:04:05;;;;;;;1.92;0.93;;;;;;;18.83;66.09;100866.09;10347457;28;20201;-68
2022/07/12 02:09:06;;;;;;;1.77;1.38;;;;;;;18.90;65.89;100879.84;10345016;28;20553;-68
2022/07/12 02:14:08;;;;;;;1.35;1.02;;;;;;;18.86;66.08;100870.38;10344683;28;20156;-68
2022/07/12 02:19:11;;;;;;;1.10;0.90;;;;;;;18.81;66.15;100862.75;10345037;28;20068;-68
2022/07/12 02:24:12;;;;;;;1.48;0.98;;;;;;;18.82;66.63;100868.97;10348488;28;20678;-68
2022/07/12 02:29:14;;;;;;;0.98;0.90;;;;;;;18.81;66.82;100859.19;10344194;28;20061;-69
2022/07/12 02:34:15;;;;;;;1.75;1.20;;;;;;;18.83;66.99;100863.41;10344105;28;21804;-69
2022/07/12 02:39:16;;;;;;;2.22;1.42;;;;;;;18.80;67.13;100876.38;10341276;28;20057;-69
2022/07/12 02:44:18;;;;;;;1.75;1.35;;;;;;;18.81;67.02;100875.38;10351664;28;20053;-67
2022/07/12 02:49:19;;;;;;;2.67;1.25;;;;;;;18.83;66.99;100863.41;10344637;28;20132;-68
2022/07/12 02:54:21;;;;;;;3.70;1.20;;;;;;;18.79;67.03;100863.91;10344816;28;20133;-68
2022/07/12 02:59:22;;;;;;;1.65;1.55;;;;;;;18.77;66.80;100882.13;10345329;28;20058;-68
2022/07/12 03:04:24;;;;;;;1.65;1.30;;;;;;;18.76;67.41;100888.50;10351075;28;20785;-67
2022/07/12 03:09:25;;;;;;;3.33;1.27;;;;;;;18.76;67.53;100893.91;10345799;28;20444;-68
2022/07/12 03:14:26;;;;;;;1.90;1.50;;;;;;;18.79;67.42;100898.97;10340807;28;20151;-67
2022/07/12 03:19:28;;;;;;;1.65;1.55;;;;;;;18.75;67.60;100889.50;10346637;28;20157;-68
2022/07/12 03:24:29;;;;;;;2.75;1.60;;;;;;;18.79;67.43;100901.66;10347981;28;20623;-68
2022/07/12 03:29:31;;;;;;;2.17;1.63;;;;;;;18.76;67.53;100910.06;10350711;28;20049;-68
2022/07/12 03:34:33;;;;;;;3.00;1.60;;;;;;;18.82;67.41;100915.66;10346242;28;20133;-70
2022/07/12 03:39:34;;;;;;;2.00;1.58;;;;;;;18.84;67.67;100919.06;10346120;28;20057;-68
2022/07/12 03:44:36;;;;;;;2.33;1.55;;;;;;;18.80;67.44;100919.53;10345692;28;24254;-67
2022/07/12 03:49:37;;;;;;;1.95;1.73;;;;;;;18.81;67.46;100921.22;10342763;28;20958;-67
2022/07/12 03:54:38;;;;;;;1.50;1.40;;;;;;;18.81;67.61;100926.59;10349924;28;20136;-68
2022/07/12 03:59:41;;;;;;;2.60;1.63;;;;;;;18.82;67.73;100917.50;10336995;28;20728;-68
2022/07/12 04:04:43;;;;;;;2.20;1.35;;;;;;;18.83;67.40;100909.25;10346593;28;20077;-69
2022/07/12 04:09:44;;;;;;;2.42;1.90;;;;;;;18.79;67.44;100901.66;10344991;28;20085;-68
2022/07/12 04:14:46;;;;;;;3.05;1.38;;;;;;;18.80;67.42;100914.97;10345585;28;20136;-70
2022/07/12 04:19:47;;;;;;;2.00;1.60;;;;;;;18.72;67.49;100902.31;10336336;28;20144;-70
2022/07/12 04:24:49;;;;;;;1.52;1.42;;;;;;;18.75;67.34;100911.94;10353159;28;20762;-67
2022/07/12 04:29:50;;;;;;;2.53;1.67;;;;;;;18.78;67.77;100917.00;10360242;28;20062;-70
2022/07/12 04:34:52;;;;;;;1.63;1.52;;;;;;;18.82;67.84;100928.31;10356079;28;20042;-70
2022/07/12 04:39:53;;;;;;;2.70;2.00;;;;;;;18.83;67.59;100936.22;10351953;28;20092;-68
2022/07/12 04:44:54;;;;;;;3.30;1.40;;;;;;;18.83;68.13;100936.22;10356232;28;20071;-68
2022/07/12 04:49:56;;;;;;;1.95;1.35;;;;;;;18.82;67.92;100933.69;10353433;28;20073;-68
2022/07/12 04:54:57;;;;;;;3.15;2.40;;;;;;;18.90;68.28;100947.28;10338739;28;20322;-71
2022/07/12 04:59:59;;;;;;;1.88;1.40;;;;;;;18.90;67.65;100953.50;10318526;28;20053;-69
2022/07/12 05:05:00;;;;;;;1.73;1.63;;;;;;;18.94;68.29;100956.72;10339287;28;20148;-68
2022/07/12 05:10:02;;;;;;;2.10;1.77;;;;;;;18.91;68.49;100959.72;10347428;28;20610;-68
2022/07/12 05:15:04;;;;;;;1.80;1.70;;;;;;;18.96;68.41;100967.34;10343452;28;20578;-69
2022/07/12 05:20:06;;;;;;;3.13;1.60;;;;;;;19.04;68.40;100976.31;10332136;28;20050;-69
2022/07/12 05:25:08;;;;;;;1.83;1.52;;;;;;;19.11;68.50;100979.25;10335204;28;20073;-67
2022/07/12 05:30:10;;;;;;;1.70;1.60;;;;;;;19.10;68.42;100974.00;10326979;28;20615;-68
2022/07/12 05:35:11;;;;;;;3.30;1.50;;;;;;;19.23;68.73;100979.78;10338209;28;20131;-70
2022/07/12 05:40:12;;;;;;;2.22;1.88;;;;;;;19.29;67.71;101000.72;10331967;28;20645;-69
2022/07/12 05:45:14;;;;;;;1.75;1.55;;;;;;;19.31;67.45;101004.09;10345630;28;20741;-70
2022/07/12 05:50:15;;;;;;;1.73;1.60;;;;;;;19.29;68.03;100999.88;10338351;28;20773;-70
2022/07/12 05:55:17;;;;;;;2.00;1.52;;;;;;;19.37;67.22;101002.63;10343333;28;20460;-69
2022/07/12 06:00:18;;;;;;;2.80;1.52;;;;;;;19.48;67.62;100994.19;10333224;28;20131;-68
2022/07/12 06:05:20;;;;;;;1.45;1.30;;;;;;;19.60;66.80;100994.75;10328755;28;20412;-68
2022/07/12 06:10:21;;;;;;;1.38;1.27;;;;;;;19.73;66.59;101013.19;10327285;28;20100;-68
2022/07/12 06:15:24;;;;;;;2.13;1.30;;;;;;;19.82;66.79;101012.22;10331669;28;20042;-67
2022/07/12 06:20:32;;;;;;;2.05;1.20;;;;;;;19.87;66.26;101004.47;10350424;28;20496;-69
2022/07/12 06:25:33;;;;;;;1.90;1.38;;;;;;;19.98;66.14;101024.06;10337422;28;20200;-67
2022/07/12 06:30:44;;;;;;;3.63;2.03;;;;;;;20.05;65.80;101022.41;10345195;28;20514;-68
2022/07/12 06:35:45;;;;;;;2.25;1.30;;;;;;;20.03;65.90;101019.84;10336816;28;20318;-69
2022/07/12 06:40:47;;;;;;;1.83;1.40;;;;;;;20.17;65.05;101020.22;10342698;28;20567;-71
2022/07/12 06:45:48;;;;;;;2.35;1.00;;;;;;;20.36;64.51;101013.63;10347078;28;20597;-70
2022/07/12 06:50:50;;;;;;;0.95;0.85;;;;;;;20.63;64.01;101015.13;10346682;28;20069;-69
2022/07/12 06:55:51;;;;;;;1.10;0.98;;;;;;;20.81;62.36;101023.09;10339322;28;20796;-71
2022/07/12 07:00:53;;;;;;;5.55;1.58;;;;;;;20.88;62.19;101028.63;10320168;28;20049;-70
2022/07/12 07:05:55;;;;;;;1.20;1.10;;;;;;;20.98;61.68;101021.19;10332490;28;20069;-69
2022/07/12 07:10:56;;;;;;;1.33;1.17;;;;;;;21.06;61.12;101014.88;10328245;28;20128;-70
2022/07/12 07:15:58;;;;;;;1.08;0.68;;;;;;;21.34;60.30;101029.69;10325652;28;20456;-70
2022/07/12 07:20:59;;;;;;;0.90;0.80;;;;;;;21.39;59.74;101031.00;10312893;28;20811;-70
2022/07/12 07:26:01;;;;;;;3.15;1.40;;;;;;;21.38;60.31;101035.59;10338803;28;20136;-71
2022/07/12 07:31:02;;;;;;;1.58;1.33;;;;;;;21.59;59.75;101031.44;10319601;28;20089;-71
2022/07/12 07:36:04;;;;;;;1.10;0.85;;;;;;;21.91;58.96;101033.16;10340828;28;20137;-69
2022/07/12 07:41:05;;;;;;;1.25;0.90;;;;;;;22.27;58.35;101029.84;10345857;28;20159;-71
2022/07/12 07:46:07;;;;;;;0.85;0.85;;;;;;;22.51;57.64;101039.66;10362236;28;20053;-71
2022/07/12 07:51:09;;;;;;;2.03;1.40;;;;;;;22.20;57.29;101045.13;10346087;28;20757;-71
2022/07/12 07:56:10;;;;;;;1.73;1.00;;;;;;;22.03;56.85;101041.72;10342888;28;20191;-71
2022/07/12 08:01:12;;;;;;;1.55;1.45;;;;;;;22.17;57.12;101040.09;10344742;28;20080;-72
2022/07/12 08:06:13;;;;;;;1.45;0.93;;;;;;;22.02;57.08;101026.47;10349029;28;20044;-71
2022/07/12 08:11:14;;;;;;;1.20;1.10;;;;;;;22.02;57.03;101023.75;10358319;28;20127;-72
2022/07/12 08:16:16;;;;;;;1.73;0.82;;;;;;;22.42;55.20;101017.19;10347443;28;20078;-72
2022/07/12 08:21:18;;;;;;;1.33;0.52;;;;;;;22.38;56.15;101006.91;10350717;28;20991;-71
2022/07/12 08:26:19;;;;;;;2.03;0.85;;;;;;;22.96;54.57;101012.59;10349012;28;20139;-70
2022/07/12 08:31:21;;;;;;;1.00;0.60;;;;;;;22.99;53.79;101012.22;10340674;28;20049;-70
2022/07/12 08:36:23;;;;;;;0.45;0.45;;;;;;;23.16;52.72;101015.63;10341480;28;20216;-71
2022/07/12 08:41:30;;;;;;;0.43;0.35;;;;;;;23.41;52.25;101032.47;10343289;28;20045;-72
2022/07/12 08:46:33;;;;;;;0.70;0.60;;;;;;;23.69;50.97;101031.78;10346505;28;20196;-70
2022/07/12 08:51:34;;;;;;;0.75;0.50;;;;;;;23.75;50.07;101024.69;10348816;28;20096;-72
2022/07/12 08:56:39;;;;;;;1.42;0.40;;;;;;;24.30;49.52;101035.97;10349713;28;20075;-71
2022/07/12 09:01:41;;;;;;;1.60;0.40;;;;;;;24.67;49.83;101029.41;10349779;28;20127;-70
2022/07/12 09:06:42;;;;;;;0.73;0.50;;;;;;;24.85;48.92;101025.34;10344265;28;20060;-73
2022/07/12 09:11:46;;;;;;;1.35;0.40;;;;;;;24.63;47.49;101025.38;10340245;28;20053;-72
2022/07/12 09:17:12;;;;;;;1.10;0.32;;;;;;;24.76;47.08;101029.28;10349324;28;20091;-72
2022/07/12 09:22:17;;;;;;;0.80;0.50;;;;;;;24.91;47.28;101030.00;10324936;28;20435;-71
2022/07/12 09:27:25;;;;;;;1.52;0.30;;;;;;;25.38;45.74;101006.59;10349751;28;20145;-71
2022/07/12 09:37:47;;;;;;;0.52;0.20;;;;;;;25.29;45.30;101012.41;10342240;28;20136;-70
2022/07/12 09:42:49;;;;;;;2.03;0.28;;;;;;;25.57;44.50;101007.72;10329912;28;20571;-71
2022/07/12 09:47:52;;;;;;;0.65;0.22;;;;;;;26.15;43.63;101011.84;10320522;28;20060;-71
2022/07/12 09:52:58;;;;;;;2.85;0.38;;;;;;;26.74;42.50;101017.56;10325334;28;20816;-71
2022/07/12 09:58:02;;;;;;;0.35;0.20;;;;;;;26.89;41.48;101006.38;10325523;28;20045;-71
2022/07/12 10:03:04;;;;;;;0.70;0.30;;;;;;;26.90;40.84;101008.06;10338072;28;20487;-70
2022/07/12 10:08:07;;;;;;;;;;;;;;;27.20;40.49;101002.09;10339359;28;20068;-72
2022/07/12 10:13:08;;;;;;;0.30;0.22;;;;;;;27.27;40.69;100998.28;10329281;28;20016;-71
2022/07/12 10:18:16;;;;;;;0.40;0.20;;;;;;;27.20;40.99;100997.47;10352330;28;20512;-71
2022/07/12 10:23:34;;;;;;;0.50;0.20;;;;;;;27.50;38.87;101002.41;10347289;28;20117;-72
2022/07/12 10:28:59;;;;;;;0.80;0.15;;;;;;;27.61;38.19;101009.09;10346080;28;20143;-72
2022/07/12 10:34:24;;;;;;;1.38;0.10;;;;;;;27.69;37.57;101008.84;10311935;28;20110;-70
2022/07/12 10:39:26;;;;;;;0.30;0.20;;;;;;;28.13;35.74;101003.53;10345825;28;20571;-71
2022/07/12 10:44:39;;;;;;;0.82;0.20;;;;;;;28.30;36.78;100999.22;10347646;28;20049;-71
2022/07/12 10:49:53;;;;;;;0.52;0.20;;;;;;;28.50;35.47;100993.53;10339010;28;20139;-71
2022/07/12 10:54:54;;;;;;;1.73;0.32;;;;;;;28.82;35.83;100993.47;10339161;28;20060;-70
2022/07/12 10:59:57;;;;;;;0.80;0.37;;;;;;;28.95;35.30;100983.47;10345648;28;20136;-71
2022/07/12 11:04:58;;;;;;;0.65;0.15;;;;;;;28.55;35.94;100993.72;10344064;28;20061;-73
2022/07/12 11:10:00;;;;;;;0.93;0.10;;;;;;;28.53;36.25;100981.31;10345761;28;20685;-71
2022/07/12 11:15:03;;;;;;;0.80;0.22;;;;;;;28.81;35.64;100969.91;10336866;28;20064;-72
2022/07/12 11:20:10;;;;;;;2.75;0.40;;;;;;;29.10;34.10;100968.28;10338439;28;20148;-71
2022/07/12 11:25:12;;;;;;;0.43;0.20;;;;;;;29.39;34.41;100965.84;10345701;28;20052;-71
2022/07/12 11:30:16;;;;;;;1.27;0.35;;;;;;;29.04;34.13;100968.38;10335272;28;20049;-72
2022/07/12 11:35:22;;;;;;;1.70;0.20;;;;;;;28.87;35.44;100963.50;10345622;28;20172;-72
2022/07/12 11:40:27;;;;;;;0.30;0.13;;;;;;;29.32;33.18;100961.50;10346222;28;20736;-71
2022/07/12 11:45:31;;;;;;;1.27;0.10;;;;;;;29.57;32.41;100956.72;10341224;28;20052;-71
2022/07/12 11:50:34;;;;;;;0.10;0.10;;;;;;;29.67;32.80;100952.59;10324730;28;20787;-71
2022/07/12 11:55:44;;;;;;;1.17;0.20;;;;;;;29.58;33.42;100947.44;10335832;28;20045;-74
2022/07/12 12:00:47;;;;;;;1.42;0.30;;;;;;;29.67;32.12;100955.34;10336551;28;20317;-72
2022/07/12 12:05:51;;;;;;;0.22;0.13;;;;;;;29.72;31.35;100937.09;10320009;28;20126;-73
2022/07/12 12:10:56;;;;;;;2.35;0.20;;;;;;;29.69;31.00;100936.75;10350617;28;20093;-72
2022/07/12 12:15:59;;;;;;;1.38;0.10;;;;;;;29.72;31.12;100915.16;10344577;28;20379;-72
2022/07/12 12:21:06;;;;;;;0.70;0.10;;;;;;;29.63;31.99;100924.78;10342911;28;20050;-72
2022/07/12 12:26:20;;;;;;;0.90;0.10;;;;;;;29.39;30.40;100910.16;10342532;28;20386;-72
2022/07/12 12:31:23;;;;;;;1.33;0.10;;;;;;;29.46;31.31;100905.44;10349156;28;20053;-72
2022/07/12 12:36:28;;;;;;;1.00;0.10;;;;;;;29.64;28.51;100900.97;10340133;28;20748;-73
2022/07/12 12:41:38;;;;;;;0.10;0.03;;;;;;;29.63;30.09;100900.09;10334387;28;20618;-72
2022/07/12 12:46:45;;;;;;;0.60;0.10;;;;;;;29.70;30.34;100897.28;10340270;28;20185;-72
2022/07/12 12:51:56;;;;;;;0.40;0.10;;;;;;;29.67;29.37;100895.00;10345703;28;20196;-71
2022/07/12 12:56:57;;;;;;;0.90;0.13;;;;;;;29.62;30.31;100892.97;10339514;28;20093;-73
2022/07/12 13:02:00;;;;;;;2.17;0.10;;;;;;;29.52;29.55;100885.28;10320017;28;20943;-72
2022/07/12 13:07:02;;;;;;;0.45;0.10;;;;;;;29.50;29.64;100892.94;10344420;28;21748;-74
2022/07/12 13:12:12;;;;;;;0.22;0.10;;;;;;;29.46;29.77;100864.31;10348209;28;20952;-70
2022/07/12 13:17:13;;;;;;;0.20;0.10;;;;;;;29.48;30.18;100875.84;10347540;28;20463;-72
2022/07/12 13:22:16;;;;;;;0.40;0.10;;;;;;;29.55;29.09;100871.13;10349269;28;20061;-71
2022/07/12 13:27:17;;;;;;;0.68;0.10;;;;;;;29.60;27.66;100868.50;10355885;28;20064;-72
2022/07/12 13:32:19;;;;;;;1.03;0.00;;;;;;;29.49;28.68;100863.81;10351457;28;20107;-72
2022/07/12 13:37:20;;;;;;;2.47;0.28;;;;;;;29.43;31.11;100873.81;10358168;28;20300;-71
2022/07/12 13:42:22;;;;;;;1.17;0.07;;;;;;;29.26;29.05;100862.69;10364852;28;20508;-70
2022/07/12 13:47:24;;;;;;;1.20;0.40;;;;;;;29.17;29.24;100858.59;10360412;28;20534;-70
2022/07/12 13:52:25;;;;;;;0.30;0.20;;;;;;;29.11;29.39;100867.72;10344697;28;20297;-70
2022/07/12 13:57:27;;;;;;;0.67;0.00;;;;;;;29.02;29.26;100850.78;10351619;28;20434;-71
2022/07/12 14:02:29;;;;;;;1.40;0.00;;;;;;;29.02;29.25;100855.41;10336741;28;20308;-72
2022/07/12 14:07:31;;;;;;;0.25;0.00;;;;;;;28.97;29.17;100847.06;10339041;28;20054;-71
2022/07/12 14:12:34;;;;;;;0.60;0.00;;;;;;;29.02;29.12;100847.19;10357741;28;20540;-73
2022/07/12 14:17:35;;;;;;;0.10;0.08;;;;;;;29.08;28.96;100863.53;10342727;28;20451;-71
2022/07/12 14:22:37;;;;;;;0.33;0.03;;;;;;;28.94;27.86;100855.72;10359911;28;20080;-70
2022/07/12 14:27:39;;;;;;;1.57;0.20;;;;;;;28.91;27.97;100844.19;10359520;28;20129;-73
2022/07/12 14:32:41;;;;;;;;;;;;;;;28.82;27.96;100842.81;10365755;28;20264;-71
2022/07/12 14:37:42;;;;;;;0.90;0.00;;;;;;;28.69;29.20;100830.13;10357525;28;19925;-71
2022/07/12 14:42:44;;;;;;;0.03;0.00;;;;;;;28.71;27.58;100840.84;10352214;28;20065;-70
2022/07/12 14:47:46;;;;;;;0.30;0.00;;;;;;;28.55;27.78;100813.00;10359549;28;20722;-71
2022/07/12 14:52:47;;;;;;;;;;;;;;;28.50;26.66;100820.22;10350010;28;20096;-71
2022/07/12 14:57:49;;;;;;;1.30;1.20;;;;;;;28.45;28.76;100818.19;10342279;28;19987;-70
2022/07/12 15:02:50;;;;;;;0.38;0.00;;;;;;;28.43;28.81;100803.84;10325376;28;20591;-74
2022/07/12 15:08:00;;;;;;;0.47;0.10;;;;;;;28.46;28.71;100808.88;10365580;28;20056;-72
2022/07/12 15:13:01;;;;;;;0.43;0.10;;;;;;;28.40;27.69;100809.78;10359802;28;20576;-74
2022/07/12 15:18:03;;;;;;;2.75;0.10;;;;;;;28.41;28.51;100806.00;10358976;28;20137;-71
2022/07/12 15:23:04;;;;;;;0.82;0.03;;;;;;;28.36;28.52;100789.44;10351912;28;20075;-72
2022/07/12 15:28:05;;;;;;;1.13;0.47;;;;;;;28.34;28.19;100788.81;10325812;28;20053;-73
2022/07/12 15:33:07;;;;;;;0.22;0.10;;;;;;;28.36;27.78;100789.44;10302885;28;20065;-72
2022/07/12 15:38:08;;;;;;;1.10;0.10;;;;;;;28.30;27.61;100782.13;10327618;28;20060;-73
2022/07/12 15:43:13;;;;;;;0.40;0.13;;;;;;;28.26;27.93;100765.31;10340509;28;20064;-73
2022/07/12 15:48:14;;;;;;;1.25;0.17;;;;;;;28.40;27.96;100776.94;10340073;28;20132;-73
2022/07/12 15:53:28;;;;;;;0.90;0.08;;;;;;;28.47;27.65;100780.44;10343425;28;20080;-72
2022/07/12 15:58:31;;;;;;;0.65;0.10;;;;;;;28.54;27.44;100785.84;10340865;28;20496;-72
2022/07/12 16:03:33;;;;;;;0.90;0.08;;;;;;;28.64;27.47;100783.41;10338601;28;20277;-72
2022/07/12 16:08:36;;;;;;;0.20;0.00;;;;;;;28.78;27.49;100784.09;10343310;28;20073;-71
2022/07/12 16:13:37;;;;;;;0.95;0.20;;;;;;;28.73;26.65;100781.19;10347690;28;20430;-70
2022/07/12 16:18:39;;;;;;;0.90;0.10;;;;;;;28.59;27.36;100785.16;10349407;28;20132;-72
2022/07/12 16:23:41;;;;;;;0.55;0.10;;;;;;;28.46;26.79;100778.75;10351225;28;21258;-73
2022/07/12 16:28:42;;;;;;;1.35;0.20;;;;;;;28.41;26.58;100770.41;10351258;28;20049;-71
2022/07/12 16:33:43;;;;;;;2.08;0.10;;;;;;;28.29;26.88;100764.03;10349987;28;20220;-71
2022/07/12 16:38:45;;;;;;;0.68;0.20;;;;;;;28.20;27.70;100767.06;10343766;28;20061;-73
2022/07/12 16:43:46;;;;;;;0.40;0.10;;;;;;;28.22;27.75;100766.84;10351336;28;20188;-72
2022/07/12 16:48:48;;;;;;;0.30;0.10;;;;;;;28.25;27.69;100760.09;10342760;28;20140;-72
2022/07/12 16:53:56;;;;;;;0.40;0.10;;;;;;;28.33;28.39;100759.75;10329338;28;20484;-74
2022/07/12 16:59:00;;;;;;;0.40;0.10;;;;;;;28.36;28.41;100759.31;10330655;28;20576;-71
2022/07/12 17:04:01;;;;;;;2.63;0.25;;;;;;;28.28;28.18;100745.94;10318863;28;20113;-71
2022/07/12 17:09:03;;;;;;;1.60;0.20;;;;;;;28.35;28.22;100757.66;10343447;28;20136;-72
2022/07/12 17:14:05;;;;;;;1.00;0.20;;;;;;;28.28;28.69;100757.72;10333804;28;20099;-71
2022/07/12 17:19:07;;;;;;;1.60;0.10;;;;;;;28.21;28.33;100756.97;10341309;28;20413;-74
2022/07/12 17:24:08;;;;;;;1.43;0.10;;;;;;;28.12;28.63;100750.13;10347301;28;20128;-71
2022/07/12 17:29:15;;;;;;;1.13;0.10;;;;;;;28.10;28.48;100760.47;10339630;28;20169;-72
2022/07/12 17:34:16;;;;;;;1.95;0.10;;;;;;;28.03;27.81;100753.16;10353343;28;20045;-71
2022/07/12 17:39:17;;;;;;;1.38;0.20;;;;;;;27.94;28.46;100761.84;10351116;28;20061;-70
2022/07/12 17:44:21;;;;;;;0.73;0.13;;;;;;;27.87;28.26;100751.81;10349819;28;20053;-71
2022/07/12 17:49:26;;;;;;;2.95;0.10;;;;;;;27.84;29.05;100754.19;10352035;28;20604;-71
2022/07/12 17:54:28;;;;;;;2.92;1.08;;;;;;;27.80;29.08;100761.16;10349025;28;20145;-72
2022/07/12 17:59:30;;;;;;;2.30;0.40;;;;;;;27.77;29.31;100758.88;10304052;28;20062;-72
2022/07/12 18:04:31;;;;;;;2.97;0.50;;;;;;;27.73;29.82;100761.22;10334853;28;20058;-72
2022/07/12 18:09:33;;;;;;;5.28;0.47;;;;;;;27.69;29.84;100760.81;10337067;28;20050;-71
2022/07/12 18:14:43;;;;;;;1.20;0.20;;;;;;;27.59;29.64;100767.88;10330817;28;20055;-72
2022/07/12 18:19:45;;;;;;;0.40;0.20;;;;;;;27.44;29.78;100760.88;10333806;28;20108;-71
2022/07/12 18:24:46;;;;;;;3.10;0.22;;;;;;;27.22;29.83;100743.13;10348849;28;21060;-73
2022/07/12 18:29:48;;;;;;;1.35;0.30;;;;;;;27.19;30.33;100755.34;10353595;28;20137;-72
2022/07/12 18:34:49;;;;;;;0.57;0.40;;;;;;;27.04;30.11;100750.19;10348447;28;20108;-70
2022/07/12 18:39:52;;;;;;;1.95;0.40;;;;;;;26.95;30.75;100752.34;10338082;28;20148;-72
2022/07/12 18:44:54;;;;;;;3.30;0.30;;;;;;;26.88;31.00;100758.91;10349323;28;20204;-71
2022/07/12 18:49:55;;;;;;;1.50;0.20;;;;;;;26.72;31.39;100747.47;10326438;28;20067;-72
2022/07/12 18:54:56;;;;;;;2.65;0.30;;;;;;;26.66;31.59;100751.00;10347022;28;20389;-72
2022/07/12 18:59:58;;;;;;;2.28;0.65;;;;;;;26.55;31.70;100754.44;10346268;28;20559;-71
2022/07/12 19:04:59;;;;;;;1.40;0.47;;;;;;;26.53;31.93;100767.44;10347862;28;20217;-72
2022/07/12 19:10:02;;;;;;;1.98;0.55;;;;;;;26.44;32.11;100764.97;10319139;28;20149;-72
2022/07/12 19:15:04;;;;;;;0.77;0.43;;;;;;;26.35;32.54;100762.72;10328978;28;20045;-71
2022/07/12 19:20:07;;;;;;;3.33;0.90;;;;;;;26.26;33.07;100773.03;10332079;28;20145;-71
2022/07/12 19:25:08;;;;;;;2.53;1.00;;;;;;;26.17;33.34;100768.88;10348246;28;20042;-72
2022/07/12 19:30:10;;;;;;;2.20;1.00;;;;;;;26.08;33.35;100774.53;10345687;28;20060;-72
2022/07/12 19:35:12;;;;;;;2.83;1.57;;;;;;;25.95;33.74;100774.53;10346750;28;20057;-74
2022/07/12 19:40:13;;;;;;;2.75;2.10;;;;;;;25.94;34.41;100786.47;10345968;28;20050;-72
2022/07/12 19:45:15;;;;;;;4.78;2.33;;;;;;;25.83;34.95;100784.41;10344015;28;20056;-73
2022/07/12 19:50:21;;;;;;;2.60;1.80;;;;;;;25.75;34.97;100780.03;10342333;28;20054;-72
2022/07/12 19:55:23;;;;;;;5.20;2.25;;;;;;;25.72;35.62;100799.53;10340439;28;20069;-73
2022/07/12 20:00:25;;;;;;;3.22;1.90;;;;;;;25.63;35.28;100798.06;10334198;28;20188;-73
2022/07/12 20:05:26;;;;;;;3.08;2.08;;;;;;;25.55;35.11;100799.09;10341048;28;20188;-70
2022/07/12 20:10:28;;;;;;;2.67;1.70;;;;;;;25.43;34.59;100798.03;10340922;28;20049;-71
2022/07/12 20:15:30;;;;;;;3.83;2.03;;;;;;;25.40;35.31;100800.16;10335203;28;20137;-73
2022/07/12 20:20:36;;;;;;;4.90;2.30;;;;;;;25.35;35.15;100791.75;10331202;28;20068;-72
2022/07/12 20:25:37;;;;;;;3.15;2.28;;;;;;;25.29;35.68;100811.63;10333863;28;20143;-71
2022/07/12 20:30:40;;;;;;;2.47;2.08;;;;;;;25.15;35.96;100808.03;10332675;28;20049;-71
2022/07/12 20:35:41;;;;;;;4.63;2.85;;;;;;;25.14;35.94;100813.69;10340276;28;20167;-71
2022/07/12 20:40:43;;;;;;;5.13;3.08;;;;;;;25.08;35.71;100811.78;10332542;28;20448;-70
2022/07/12 20:45:44;;;;;;;2.53;1.77;;;;;;;24.97;37.37;100791.47;10325780;28;20548;-73
2022/07/12 20:50:46;;;;;;;4.10;1.52;;;;;;;24.95;40.24;100788.09;10336961;28;20137;-71
2022/07/12 20:55:48;;;;;;;4.60;2.75;;;;;;;24.85;39.22;100793.94;10352516;28;20156;-73
2022/07/12 21:00:49;;;;;;;3.80;2.78;;;;;;;24.74;38.98;100794.50;10345356;28;20129;-73
2022/07/12 21:05:51;;;;;;;3.45;2.28;;;;;;;24.62;38.36;100797.84;10353965;28;20200;-72
2022/07/12 21:10:53;;;;;;;4.07;2.13;;;;;;;24.59;38.37;100806.41;10355001;28;20050;-71
2022/07/12 21:15:54;;;;;;;3.78;2.30;;;;;;;24.49;38.78;100800.47;10357071;28;20132;-71
2022/07/12 21:20:56;;;;;;;3.60;2.22;;;;;;;24.43;38.03;100801.28;10351174;28;20049;-71
2022/07/12 21:25:57;;;;;;;2.70;2.13;;;;;;;24.42;38.13;100802.31;10349748;28;20542;-71
2022/07/12 21:31:00;;;;;;;3.10;2.10;;;;;;;24.35;38.43;100811.28;10349065;28;20096;-70
2022/07/12 21:36:03;;;;;;;3.83;2.30;;;;;;;24.37;39.32;100812.97;10352642;28;20073;-72
2022/07/12 21:41:05;;;;;;;2.70;2.28;;;;;;;24.26;38.74;100812.50;10352507;28;20081;-72
2022/07/12 21:46:06;;;;;;;4.78;3.08;;;;;;;24.19;39.09;100806.16;10352398;28;20038;-72
2022/07/12 21:51:08;;;;;;;4.55;4.10;;;;;;;24.13;40.16;100815.94;10349211;28;20215;-71
2022/07/12 21:56:10;;;;;;;5.25;4.25;;;;;;;24.03;40.10;100806.47;10349294;28;20133;-72
2022/07/12 22:01:11;;;;;;;5.05;4.55;;;;;;;23.94;40.46;100808.50;10352645;28;20085;-71
2022/07/12 22:06:13;;;;;;;4.80;3.10;;;;;;;23.86;40.37;100803.22;10353932;28;20046;-72
2022/07/12 22:11:15;;;;;;;5.93;2.92;;;;;;;23.75;40.55;100810.00;10348278;28;20295;-74
2022/07/12 22:16:16;;;;;;;3.88;2.70;;;;;;;23.75;41.52;100810.00;10353330;28;20552;-75
2022/07/12 22:21:18;;;;;;;6.28;2.60;;;;;;;23.65;42.25;100805.75;10354767;28;20081;-72
2022/07/12 22:26:19;;;;;;;2.15;1.85;;;;;;;23.60;42.53;100802.78;10347387;28;20127;-71
2022/07/12 22:31:21;;;;;;;2.60;1.75;;;;;;;23.56;42.68;100811.53;10349876;28;20060;-72
2022/07/12 22:36:23;;;;;;;2.15;1.55;;;;;;;23.49;42.82;100806.00;10350412;28;20188;-72
2022/07/12 22:41:24;;;;;;;2.92;1.75;;;;;;;23.48;42.90;100809.78;10352618;28;20056;-72
2022/07/12 22:46:26;;;;;;;3.40;1.63;;;;;;;23.38;43.54;100812.00;10346571;28;20177;-72
2022/07/12 22:56:47;;;;;;;6.68;2.83;;;;;;;23.25;43.31;100821.66;10347359;28;20148;-71
2022/07/12 23:01:49;;;;;;;4.13;2.28;;;;;;;23.18;43.97;100814.47;10346194;28;20220;-71
2022/07/12 23:06:50;;;;;;;3.10;2.30;;;;;;;23.19;43.64;100813.47;10362406;28;20114;-72
2022/07/12 23:11:53;;;;;;;5.13;2.60;;;;;;;23.23;43.80;100822.91;10353036;28;20534;-71
2022/07/12 23:16:55;;;;;;;4.18;2.35;;;;;;;23.20;43.99;100826.00;10345315;28;20483;-71
2022/07/12 23:21:56;;;;;;;3.97;2.88;;;;;;;23.22;43.63;100822.06;10342910;28;20073;-71